This is the latest recevied weather packets stored in our database for station/object E27EKO-13. If no packets are shown the sender has not sent any weather packets the latest 10 day(s).
| Time | Temp. | Humidity | Pressure | Rain* | Wind** | Luminosity | Snow |
|---|---|---|---|---|---|---|---|
| 1777512435 | 39.44° C | 56% | 1010 hPa | - | - | 0 W/m² | - |
| 1777512112 | 43.89° C | 48% | 1010 hPa | - | - | 0 W/m² | - |
| 1777511790 | 43.33° C | 50% | 1010 hPa | - | - | 0 W/m² | - |
| 1777511468 | 40.56° C | 56% | 1010 hPa | - | - | 0 W/m² | - |
| 1777511146 | 41.67° C | 53% | 1010 hPa | - | - | 0 W/m² | - |
| 1777510824 | 40.56° C | 56% | 1010 hPa | - | - | 0 W/m² | - |
| 1777510627 | 40° C | 58% | 1010 hPa | - | - | 0 W/m² | - |
| 1777510305 | 41.11° C | 55% | 1010 hPa | - | - | 0 W/m² | - |
| 1777509983 | 40.56° C | 55% | 1010 hPa | - | - | 0 W/m² | - |
| 1777509622 | 39.44° C | 60% | 1010 hPa | - | - | 0 W/m² | - |
| 1777509300 | 38.33° C | 62% | 1010 hPa | - | - | 0 W/m² | - |
| 1777508978 | 40.56° C | 57% | 1009 hPa | - | - | 0 W/m² | - |
| 1777508656 | 39.44° C | 60% | 1009 hPa | - | - | 0 W/m² | - |
| 1777508334 | 38.89° C | 63% | 1009 hPa | - | - | 0 W/m² | - |
| 1777508223 | 38.89° C | 63% | 1009 hPa | - | - | 0 W/m² | - |
| 1777507908 | 38.33° C | 66% | 1009 hPa | - | - | 0 W/m² | - |
| 1777507586 | 37.22° C | 72% | 1009 hPa | - | - | 0 W/m² | - |
| 1777507264 | 33.33° C | 89% | 1009 hPa | - | - | 0 W/m² | - |
| 1777506942 | 32.22° C | 97% | 1009 hPa | - | - | 0 W/m² | - |
| 1777506620 | 31.11° C | 99% | 1009 hPa | - | - | 0 W/m² | - |
| 1777506298 | 30.56° C | 99% | 1009 hPa | - | - | 0 W/m² | - |
| 1777505976 | 30.56° C | 99% | 1009 hPa | - | - | 0 W/m² | - |
| 1777505516 | 30.56° C | 99% | 1009 hPa | - | - | 0 W/m² | - |
| 1777505194 | 30.56° C | 99% | 1009 hPa | - | - | 0 W/m² | - |
| 1777504872 | 30.56° C | 99% | 1009 hPa | - | - | 0 W/m² | - |
* Rain since midnight (hover to see other rain measurements)
** Current wind speed in m/s (hover to see current wind gust speed)